Time;durP1;ratioP1;P1;durP2;ratioP2;P2;SDS_P1;SDS_P2;PMS_P1;PMS_P2;Temp;Humidity;BMP_temperature;BMP_pressure;BME280_temperature;BME280_humidity;BME280_pressure;Samples;Min_cycle;Max_cycle;Signal;HPM_P1;HPM_P2
2023/08/21 00:00:53;;;;;;;1999.90;999.90;;;21.40;99.90;;;;;;5093178;28;20031;-77
2023/08/21 00:03:19;;;;;;;1999.90;999.90;;;21.40;99.90;;;;;;5092470;28;20083;-77
2023/08/21 00:05:44;;;;;;;1999.90;999.90;;;21.30;99.90;;;;;;5092838;28;20039;-77
2023/08/21 00:08:10;;;;;;;1999.90;999.90;;;21.30;99.90;;;;;;5092422;28;20193;-76
2023/08/21 00:10:38;;;;;;;1999.90;999.90;;;21.30;99.90;;;;;;5085977;28;20475;-76
2023/08/21 00:13:05;;;;;;;1999.90;999.90;;;21.30;99.90;;;;;;5081493;28;20031;-78
2023/08/21 00:15:31;;;;;;;1999.90;999.90;;;21.20;99.90;;;;;;5077200;28;20035;-78
2023/08/21 00:17:56;;;;;;;1999.90;999.90;;;21.20;99.90;;;;;;5072848;28;20471;-77
2023/08/21 00:20:22;;;;;;;1999.90;999.90;;;21.10;99.90;;;;;;5074709;28;20025;-76
2023/08/21 00:22:47;;;;;;;1999.90;999.90;;;21.10;99.90;;;;;;5086117;28;20020;-76
2023/08/21 00:25:13;;;;;;;1999.90;999.90;;;21.10;99.90;;;;;;5096162;28;20024;-76
2023/08/21 00:27:38;;;;;;;1999.90;999.90;;;21.10;99.90;;;;;;5096187;28;20366;-76
2023/08/21 00:30:05;;;;;;;1999.90;999.90;;;21.00;99.90;;;;;;5095613;28;20542;-78
2023/08/21 00:32:30;;;;;;;1999.90;999.90;;;21.00;99.90;;;;;;5095867;28;20024;-77
2023/08/21 00:34:56;;;;;;;1999.90;999.90;;;20.90;99.90;;;;;;5094746;28;20544;-76
2023/08/21 00:37:21;;;;;;;1999.90;999.90;;;20.90;99.90;;;;;;5094587;28;20114;-76
2023/08/21 00:39:47;;;;;;;1999.90;999.90;;;20.80;99.90;;;;;;5094641;28;20032;-77
2023/08/21 00:42:12;;;;;;;1999.90;999.90;;;20.80;99.90;;;;;;5095660;28;20027;-77
2023/08/21 00:44:38;;;;;;;1999.90;999.90;;;20.80;99.90;;;;;;5082655;28;20082;-77
2023/08/21 00:47:04;;;;;;;1999.90;999.90;;;20.70;99.90;;;;;;5075719;28;20055;-76
2023/08/21 00:49:30;;;;;;;1999.90;999.90;;;20.70;99.90;;;;;;5075558;28;20487;-76
2023/08/21 00:51:56;;;;;;;1999.90;999.90;;;20.60;99.90;;;;;;5080311;28;20028;-76
2023/08/21 00:54:22;;;;;;;1999.90;999.90;;;20.60;99.90;;;;;;5092370;28;20479;-77
2023/08/21 00:56:47;;;;;;;1999.90;999.90;;;20.60;99.90;;;;;;5095735;28;20069;-77
2023/08/21 00:59:13;;;;;;;1999.90;999.90;;;20.60;99.90;;;;;;5093996;28;20024;-77
2023/08/21 01:01:40;;;;;;;1999.90;999.90;;;20.50;99.90;;;;;;5094161;28;20031;-76
2023/08/21 01:04:06;;;;;;;1999.90;999.90;;;20.50;99.90;;;;;;5094968;28;20101;-76
2023/08/21 01:06:32;;;;;;;1999.90;999.90;;;20.40;99.90;;;;;;5093316;28;20103;-77
2023/08/21 01:09:06;;;;;;;1999.90;999.90;;;20.40;99.90;;;;;;5095111;28;20103;-77
2023/08/21 01:11:43;;;;;;;1999.90;999.90;;;20.40;99.90;;;;;;5081324;28;20021;-77
2023/08/21 01:14:36;;;;;;;1999.90;999.90;;;20.40;99.90;;;;;;5085020;28;20020;-76
2023/08/21 01:17:04;;;;;;;1999.90;999.90;;;20.40;99.90;;;;;;5074641;28;20069;-76
2023/08/21 01:19:40;;;;;;;1999.90;999.90;;;20.30;99.90;;;;;;5074495;28;20483;-77
2023/08/21 01:22:06;;;;;;;1999.90;999.90;;;20.30;99.90;;;;;;5080213;28;20095;-77
2023/08/21 01:24:33;;;;;;;1999.90;999.90;;;20.30;99.90;;;;;;5093865;28;20162;-76
2023/08/21 01:26:58;;;;;;;1999.90;999.90;;;20.30;99.90;;;;;;5093861;28;20023;-76
2023/08/21 01:29:24;;;;;;;1999.90;999.90;;;20.30;99.90;;;;;;5094658;28;20028;-76
2023/08/21 01:31:58;;;;;;;1999.90;999.90;;;20.30;99.90;;;;;;5094880;28;20390;-77
2023/08/21 01:34:24;;;;;;;1999.90;999.90;;;20.30;99.90;;;;;;5093667;28;20402;-77
2023/08/21 01:36:50;;;;;;;1999.90;999.90;;;20.30;99.90;;;;;;5075183;28;20077;-77
2023/08/21 01:39:16;;;;;;;1999.90;999.90;;;20.30;99.90;;;;;;5074370;28;20116;-77
2023/08/21 01:41:42;;;;;;;1999.90;999.90;;;20.30;99.90;;;;;;5074454;28;20096;-76
2023/08/21 01:44:08;;;;;;;1999.90;999.90;;;20.20;99.90;;;;;;5069356;28;20498;-77
2023/08/21 01:46:33;;;;;;;1999.90;999.90;;;20.20;99.90;;;;;;5054277;28;20441;-77
2023/08/21 01:48:59;;;;;;;1999.90;999.90;;;20.20;99.90;;;;;;5054720;28;20032;-76
2023/08/21 01:51:24;;;;;;;1999.90;999.90;;;20.20;99.90;;;;;;5073175;28;20514;-77
2023/08/21 01:53:50;;;;;;;1999.90;999.90;;;20.20;99.90;;;;;;5086852;28;20112;-76
2023/08/21 01:56:16;;;;;;;1999.90;999.90;;;20.20;99.90;;;;;;5094124;28;20059;-76
2023/08/21 01:58:41;;;;;;;1999.90;999.90;;;20.20;99.90;;;;;;5094443;28;20141;-77
2023/08/21 02:01:07;;;;;;;1999.90;999.90;;;20.10;99.90;;;;;;5094506;28;20367;-77
2023/08/21 02:03:33;;;;;;;1999.90;999.90;;;20.20;99.90;;;;;;5093981;28;20048;-77
2023/08/21 02:05:58;;;;;;;1999.90;999.90;;;20.10;99.90;;;;;;5094215;28;20031;-76
2023/08/21 02:08:30;;;;;;;1999.90;999.90;;;20.10;99.90;;;;;;5093833;28;20437;-76
2023/08/21 02:10:55;;;;;;;1999.90;999.90;;;20.10;99.90;;;;;;5083349;28;20058;-77
2023/08/21 02:13:21;;;;;;;1999.90;999.90;;;20.10;99.90;;;;;;5083300;28;20074;-76
2023/08/21 02:15:47;;;;;;;1999.90;999.90;;;20.10;99.90;;;;;;5076358;28;20153;-77
2023/08/21 02:18:12;;;;;;;1999.90;999.90;;;20.10;99.90;;;;;;5073635;28;20072;-76
2023/08/21 02:20:38;;;;;;;1999.90;999.90;;;20.10;99.90;;;;;;5073544;28;20020;-76
2023/08/21 02:23:04;;;;;;;1999.90;999.90;;;20.00;99.90;;;;;;5087254;28;20095;-77
2023/08/21 02:25:30;;;;;;;1999.90;999.90;;;20.00;99.90;;;;;;5093925;28;20032;-76
2023/08/21 02:27:56;;;;;;;1999.90;999.90;;;20.00;99.90;;;;;;5093882;28;20413;-77
2023/08/21 02:30:25;;;;;;;1999.90;999.90;;;20.00;99.90;;;;;;5094201;28;20115;-77
2023/08/21 02:32:53;;;;;;;1999.90;999.90;;;19.90;99.90;;;;;;5093737;28;20016;-76
2023/08/21 02:35:19;;;;;;;1999.90;999.90;;;19.90;99.90;;;;;;5093473;28;20467;-77
2023/08/21 02:37:45;;;;;;;1999.90;999.90;;;19.90;99.90;;;;;;5093555;28;20024;-78
2023/08/21 02:40:11;;;;;;;1999.90;999.90;;;19.90;99.90;;;;;;5091949;28;20035;-77
2023/08/21 02:42:36;;;;;;;1999.90;999.90;;;19.90;99.90;;;;;;5092198;28;20391;-77
2023/08/21 02:45:07;;;;;;;1999.90;999.90;;;19.80;99.90;;;;;;5076887;28;20028;-76
2023/08/21 02:47:39;;;;;;;1999.90;999.90;;;19.80;99.90;;;;;;5072105;28;20103;-76
2023/08/21 02:50:06;;;;;;;1999.90;999.90;;;19.80;99.90;;;;;;5072259;28;20033;-78
2023/08/21 02:52:33;;;;;;;1999.90;999.90;;;19.80;99.90;;;;;;5079485;28;20123;-77
2023/08/21 02:54:58;;;;;;;1999.90;999.90;;;19.80;99.90;;;;;;5093912;28;20111;-77
2023/08/21 02:57:27;;;;;;;1999.90;999.90;;;19.70;99.90;;;;;;5093288;28;20485;-76
2023/08/21 02:59:54;;;;;;;1999.90;999.90;;;19.70;99.90;;;;;;5093212;28;20028;-76
2023/08/21 03:02:19;;;;;;;1999.90;999.90;;;19.70;99.90;;;;;;5091826;28;20483;-78
2023/08/21 03:04:45;;;;;;;1999.90;999.90;;;19.70;99.90;;;;;;5073148;28;20036;-77
2023/08/21 03:07:11;;;;;;;1999.90;999.90;;;19.70;99.90;;;;;;5073077;28;20033;-77
2023/08/21 03:09:37;;;;;;;1999.90;999.90;;;19.70;99.90;;;;;;5071543;28;20032;-76
2023/08/21 03:12:03;;;;;;;1999.90;999.90;;;19.70;99.90;;;;;;5071593;28;20038;-77
2023/08/21 03:14:29;;;;;;;1999.90;999.90;;;19.70;99.90;;;;;;5084278;28;20024;-77
2023/08/21 03:16:54;;;;;;;1999.90;999.90;;;19.80;99.90;;;;;;5073192;28;20086;-77
2023/08/21 03:19:20;;;;;;;1999.90;999.90;;;19.70;99.90;;;;;;5072865;28;20086;-77
2023/08/21 03:21:46;;;;;;;1999.90;999.90;;;19.70;99.90;;;;;;5070566;28;20471;-77
2023/08/21 03:24:11;;;;;;;1999.90;999.90;;;19.80;99.90;;;;;;5072531;28;20024;-76
2023/08/21 03:26:37;;;;;;;1999.90;999.90;;;19.80;99.90;;;;;;5073222;28;20476;-76
2023/08/21 03:29:03;;;;;;;1999.90;999.90;;;19.80;99.90;;;;;;5071712;28;20063;-77
2023/08/21 03:31:29;;;;;;;1999.90;999.90;;;19.80;99.90;;;;;;5073036;28;20099;-77
2023/08/21 03:33:55;;;;;;;1999.90;999.90;;;19.80;99.90;;;;;;5072768;28;20039;-77
2023/08/21 03:36:21;;;;;;;1999.90;999.90;;;19.70;99.90;;;;;;5072664;28;20028;-76
2023/08/21 03:38:46;;;;;;;1999.90;999.90;;;19.80;99.90;;;;;;5072452;28;20078;-77
2023/08/21 03:41:12;;;;;;;1999.90;999.90;;;19.70;99.90;;;;;;5071396;28;20025;-77
2023/08/21 03:43:38;;;;;;;1999.90;999.90;;;19.70;99.90;;;;;;5072850;28;20356;-77
2023/08/21 03:46:03;;;;;;;1999.90;999.90;;;19.70;99.90;;;;;;5072659;28;20340;-78
2023/08/21 03:48:29;;;;;;;1999.90;999.90;;;19.60;99.90;;;;;;5072622;28;20111;-77
2023/08/21 03:50:55;;;;;;;1999.90;999.90;;;19.60;99.90;;;;;;5074297;28;20040;-76
2023/08/21 03:53:20;;;;;;;1999.90;999.90;;;19.60;99.90;;;;;;5085282;28;20036;-77
2023/08/21 03:55:46;;;;;;;1999.90;999.90;;;19.60;99.90;;;;;;5095345;28;20118;-76
2023/08/21 03:58:13;;;;;;;1999.90;999.90;;;19.60;99.90;;;;;;5096509;28;20108;-78
2023/08/21 04:00:39;;;;;;;1999.90;999.90;;;19.60;99.90;;;;;;5096313;28;20386;-77
2023/08/21 04:03:04;;;;;;;1999.90;999.90;;;19.50;99.90;;;;;;5094998;28;20208;-76
2023/08/21 04:05:30;;;;;;;1999.90;999.90;;;19.50;99.90;;;;;;5091349;28;20391;-76
2023/08/21 04:07:55;;;;;;;1999.90;999.90;;;19.50;99.90;;;;;;5087373;28;20073;-77
2023/08/21 04:10:21;;;;;;;1999.90;999.90;;;19.50;99.90;;;;;;5091499;28;20078;-77
2023/08/21 04:12:46;;;;;;;1999.90;999.90;;;19.40;99.90;;;;;;5082227;28;20422;-78
2023/08/21 04:15:12;;;;;;;1999.90;999.90;;;19.40;99.90;;;;;;5088321;28;20035;-76
2023/08/21 04:17:38;;;;;;;1999.90;999.90;;;19.40;99.90;;;;;;5094959;28;20506;-75
2023/08/21 04:20:04;;;;;;;1999.90;999.90;;;19.40;99.90;;;;;;5096203;28;20031;-76
2023/08/21 04:22:29;;;;;;;1999.90;999.90;;;19.40;99.90;;;;;;5094740;28;20471;-77
2023/08/21 04:24:55;;;;;;;1999.90;999.90;;;19.40;99.90;;;;;;5096117;28;20077;-77
2023/08/21 04:27:20;;;;;;;1999.90;999.90;;;19.40;99.90;;;;;;5096243;28;20035;-76
2023/08/21 04:29:46;;;;;;;1999.90;999.90;;;19.40;99.90;;;;;;5094063;28;20035;-76
2023/08/21 04:32:12;;;;;;;1999.90;999.90;;;19.40;99.90;;;;;;5082148;28;20063;-76
2023/08/21 04:34:37;;;;;;;1999.90;999.90;;;19.40;99.90;;;;;;5074406;28;20053;-77
2023/08/21 04:37:04;;;;;;;1999.90;999.90;;;19.40;99.90;;;;;;5074931;28;20107;-77
2023/08/21 04:39:30;;;;;;;1999.90;999.90;;;19.50;99.90;;;;;;5075859;28;20407;-77
2023/08/21 04:41:55;;;;;;;1999.90;999.90;;;19.50;99.90;;;;;;5075254;28;20020;-78
2023/08/21 04:44:21;;;;;;;1999.90;999.90;;;19.50;99.90;;;;;;5075180;28;20102;-76
2023/08/21 04:46:50;;;;;;;1999.90;999.90;;;19.50;99.90;;;;;;5075636;28;20021;-76
2023/08/21 04:49:15;;;;;;;1999.90;999.90;;;19.50;99.90;;;;;;5073986;28;20043;-77
2023/08/21 04:51:41;;;;;;;1999.90;999.90;;;19.60;99.90;;;;;;5081692;28;20040;-76
2023/08/21 04:54:07;;;;;;;1999.90;999.90;;;19.60;99.90;;;;;;5086143;28;20020;-76
2023/08/21 04:56:32;;;;;;;1999.90;999.90;;;19.70;99.90;;;;;;5085205;28;20024;-76
2023/08/21 04:58:58;;;;;;;1999.90;999.90;;;19.70;99.90;;;;;;5080987;28;20029;-76
2023/08/21 05:01:24;;;;;;;1999.90;999.90;;;19.70;99.90;;;;;;5081480;28;20032;-77
2023/08/21 05:03:50;;;;;;;1999.90;999.90;;;19.80;99.90;;;;;;5083556;28;20153;-77
2023/08/21 05:06:16;;;;;;;1999.90;999.90;;;19.80;99.90;;;;;;5073470;28;20458;-77
2023/08/21 05:08:41;;;;;;;1999.90;999.90;;;19.80;99.90;;;;;;5073680;28;20028;-75
2023/08/21 05:11:07;;;;;;;1999.90;999.90;;;19.90;99.90;;;;;;5074721;28;20495;-78
2023/08/21 05:13:33;;;;;;;1999.90;999.90;;;19.90;99.90;;;;;;5086499;28;20024;-77
2023/08/21 05:15:59;;;;;;;1999.90;999.90;;;19.90;99.90;;;;;;5076049;28;20464;-77
2023/08/21 05:18:25;;;;;;;1999.90;999.90;;;20.00;99.90;;;;;;5073135;28;20128;-78
2023/08/21 05:20:53;;;;;;;1999.90;999.90;;;20.00;99.90;;;;;;5074789;28;20036;-75
2023/08/21 05:23:19;;;;;;;1999.90;999.90;;;20.00;99.90;;;;;;5078611;28;20024;-76
2023/08/21 05:25:45;;;;;;;1999.90;999.90;;;20.00;99.90;;;;;;5078732;28;20441;-78
2023/08/21 05:28:11;;;;;;;1999.90;999.90;;;20.10;99.90;;;;;;5081133;28;20022;-78
2023/08/21 05:30:36;;;;;;;1999.90;999.90;;;20.10;99.90;;;;;;5094636;28;20394;-76
2023/08/21 05:33:03;;;;;;;1999.90;999.90;;;20.10;99.90;;;;;;5081984;28;20513;-76
2023/08/21 05:35:32;;;;;;;1999.90;999.90;;;20.10;99.90;;;;;;5074158;28;20505;-76
2023/08/21 05:37:58;;;;;;;1999.90;999.90;;;20.10;99.90;;;;;;5074235;28;20020;-76
2023/08/21 05:40:23;;;;;;;1999.90;999.90;;;20.10;99.90;;;;;;5073979;28;20028;-78
2023/08/21 05:42:49;;;;;;;1999.90;999.90;;;20.10;99.90;;;;;;5068377;28;20450;-77
2023/08/21 05:45:14;;;;;;;1999.90;999.90;;;20.10;99.90;;;;;;5079538;28;20028;-78
2023/08/21 05:47:40;;;;;;;1999.90;999.90;;;20.20;99.90;;;;;;5072211;28;20016;-76
2023/08/21 05:50:06;;;;;;;1999.90;999.90;;;20.20;99.90;;;;;;5076122;28;20107;-78
2023/08/21 05:52:31;;;;;;;1999.90;999.90;;;20.20;99.90;;;;;;5077240;28;20040;-77
2023/08/21 05:54:57;;;;;;;1999.90;999.90;;;20.20;99.90;;;;;;5072158;28;20029;-78
2023/08/21 05:57:23;;;;;;;1999.90;999.90;;;20.20;99.90;;;;;;5072155;28;20128;-78
2023/08/21 05:59:48;;;;;;;1999.90;999.90;;;20.30;99.90;;;;;;5073740;28;20028;-77
2023/08/21 06:02:14;;;;;;;1999.90;999.90;;;20.30;99.90;;;;;;5081996;28;20051;-75
2023/08/21 06:04:41;;;;;;;1999.90;999.90;;;20.20;99.90;;;;;;5070682;28;20068;-77
2023/08/21 06:07:07;;;;;;;1999.90;999.90;;;20.30;99.90;;;;;;5072409;28;20086;-77
2023/08/21 06:09:33;;;;;;;1999.90;999.90;;;20.20;99.90;;;;;;5073081;28;20433;-77
2023/08/21 06:12:02;;;;;;;1999.90;999.90;;;20.30;99.90;;;;;;5081022;28;20038;-77
2023/08/21 06:14:29;;;;;;;1999.90;999.90;;;20.30;99.90;;;;;;5084373;28;20048;-75
2023/08/21 06:17:03;;;;;;;1999.90;999.90;;;20.40;99.90;;;;;;5072469;28;20082;-76
2023/08/21 06:19:29;;;;;;;1999.90;999.90;;;20.40;99.90;;;;;;5086356;28;20032;-78
2023/08/21 06:21:55;;;;;;;1999.90;999.90;;;20.50;99.90;;;;;;5090196;28;20464;-78
2023/08/21 06:24:21;;;;;;;1999.90;999.90;;;20.50;99.90;;;;;;5076703;28;20065;-78
2023/08/21 06:26:47;;;;;;;1999.90;999.90;;;20.60;99.90;;;;;;5071380;28;20024;-76
2023/08/21 06:29:12;;;;;;;1999.90;999.90;;;20.60;99.90;;;;;;5080166;28;20122;-78
2023/08/21 06:31:38;;;;;;;1999.90;999.90;;;20.80;99.90;;;;;;5080828;28;20099;-78
2023/08/21 06:34:04;;;;;;;1999.90;999.90;;;20.80;99.90;;;;;;5072501;28;20113;-78
2023/08/21 06:36:29;;;;;;;1999.90;999.90;;;20.90;99.90;;;;;;5073027;28;20380;-78
2023/08/21 06:38:55;;;;;;;1999.90;999.90;;;20.90;99.90;;;;;;5072831;28;20024;-76
2023/08/21 06:41:21;;;;;;;1999.90;999.90;;;21.10;99.90;;;;;;5079061;28;20091;-77
2023/08/21 06:43:47;;;;;;;1999.90;999.90;;;21.20;99.90;;;;;;5081767;28;20480;-78
2023/08/21 06:46:13;;;;;;;1999.90;999.90;;;21.30;99.90;;;;;;5072454;28;20036;-78
2023/08/21 06:48:40;;;;;;;1999.90;999.90;;;21.30;99.90;;;;;;5073851;28;20036;-76
2023/08/21 06:51:06;;;;;;;1999.90;999.90;;;21.40;99.90;;;;;;5084020;28;20108;-76
2023/08/21 06:53:32;;;;;;;1999.90;999.90;;;21.50;99.90;;;;;;5084135;28;20117;-76
2023/08/21 06:55:58;;;;;;;1999.90;999.90;;;21.70;99.90;;;;;;5092996;28;20042;-78
2023/08/21 06:58:23;;;;;;;1999.90;999.90;;;21.80;99.90;;;;;;5077673;28;20112;-78
2023/08/21 07:00:49;;;;;;;1999.90;999.90;;;22.00;99.90;;;;;;5080105;28;20078;-76
2023/08/21 07:03:15;;;;;;;1999.90;999.90;;;22.10;99.90;;;;;;5086435;28;20097;-78
2023/08/21 07:05:40;;;;;;;1999.90;999.90;;;22.30;99.90;;;;;;5078828;28;20462;-76
2023/08/21 07:08:06;;;;;;;1999.90;999.90;;;22.40;99.90;;;;;;5071747;28;20020;-78
2023/08/21 07:10:38;;;;;;;1999.90;999.90;;;22.40;99.90;;;;;;5081048;28;20429;-78
2023/08/21 07:13:04;;;;;;;1999.90;999.90;;;22.60;99.90;;;;;;5068969;28;20123;-78
2023/08/21 07:15:29;;;;;;;1999.90;999.90;;;22.70;99.90;;;;;;5068598;28;20463;-76
2023/08/21 07:17:55;;;;;;;1999.90;999.90;;;22.80;99.90;;;;;;5071055;28;20082;-76
2023/08/21 07:20:22;;;;;;;1999.90;999.90;;;23.00;99.90;;;;;;5070897;28;20449;-78
2023/08/21 07:22:47;;;;;;;1999.90;999.90;;;23.20;99.90;;;;;;5071819;28;20027;-78
2023/08/21 07:25:13;;;;;;;1999.90;999.90;;;23.20;99.90;;;;;;5071356;28;20028;-78
2023/08/21 07:27:39;;;;;;;1999.90;999.90;;;23.40;99.90;;;;;;5071800;28;20391;-78
2023/08/21 07:30:06;;;;;;;1999.90;999.90;;;23.60;99.90;;;;;;5074671;28;20436;-76
2023/08/21 07:32:32;;;;;;;1999.90;999.90;;;23.70;99.90;;;;;;5075127;28;20040;-76
2023/08/21 07:34:58;;;;;;;1999.90;999.90;;;23.80;99.90;;;;;;5075149;28;20131;-78
2023/08/21 07:37:23;;;;;;;1999.90;999.90;;;23.90;99.90;;;;;;5075084;28;20059;-78
2023/08/21 07:39:49;;;;;;;1999.90;999.90;;;24.10;99.90;;;;;;5074771;28;20064;-79
2023/08/21 07:42:14;;;;;;;1999.90;999.90;;;24.30;99.90;;;;;;5073368;28;20024;-78
2023/08/21 07:44:40;;;;;;;1999.90;999.90;;;24.50;99.90;;;;;;5074890;28;20032;-77
2023/08/21 07:47:06;;;;;;;1999.90;999.90;;;24.60;99.90;;;;;;5080393;28;20032;-77
2023/08/21 07:49:33;;;;;;;1999.90;999.90;;;24.80;99.90;;;;;;5092395;28;20062;-77
2023/08/21 07:51:58;;;;;;;1999.90;999.90;;;25.00;99.90;;;;;;5083724;28;20044;-78
2023/08/21 07:54:24;;;;;;;1999.90;999.90;;;25.20;99.90;;;;;;5072485;28;20032;-78
2023/08/21 07:56:50;;;;;;;1999.90;999.90;;;25.50;99.90;;;;;;5074286;28;20032;-79
2023/08/21 07:59:16;;;;;;;1999.90;999.90;;;25.60;99.90;;;;;;5074777;28;20458;-76
2023/08/21 08:01:42;;;;;;;1999.90;999.90;;;25.90;99.90;;;;;;5074411;28;20020;-79
2023/08/21 08:04:08;;;;;;;1999.90;999.90;;;26.40;99.90;;;;;;5079962;28;20048;-78
2023/08/21 08:06:34;;;;;;;1999.90;999.90;;;28.00;99.90;;;;;;5094008;28;20036;-79
2023/08/21 08:08:59;;;;;;;1999.90;999.90;;;31.10;99.90;;;;;;5083659;28;20028;-77
2023/08/21 08:11:25;;;;;;;1999.90;999.90;;;32.80;99.90;;;;;;5080190;28;20036;-76
2023/08/21 08:13:51;;;;;;;1999.90;999.90;;;34.70;99.90;;;;;;5081347;28;20070;-75
2023/08/21 08:16:17;;;;;;;1999.90;999.90;;;34.70;99.90;;;;;;5078817;28;20032;-77
2023/08/21 08:18:42;;;;;;;1999.90;999.90;;;35.10;99.70;;;;;;5076256;28;20037;-77
2023/08/21 08:21:09;;;;;;;1999.90;999.90;;;35.20;98.90;;;;;;5081722;28;20486;-78
2023/08/21 08:23:34;;;;;;;1999.90;999.90;;;35.40;98.70;;;;;;5077716;28;20025;-76
2023/08/21 08:26:00;;;;;;;1999.90;999.90;;;35.90;98.50;;;;;;5079265;28;20039;-76
2023/08/21 08:28:26;;;;;;;1999.90;999.90;;;36.60;97.60;;;;;;5075017;28;20030;-78
2023/08/21 08:30:51;;;;;;;1999.90;999.90;;;36.90;96.80;;;;;;5073939;28;20036;-78
2023/08/21 08:33:17;;;;;;;1999.90;999.90;;;36.90;96.20;;;;;;5073614;28;20506;-78
2023/08/21 08:35:43;;;;;;;1999.90;999.90;;;37.10;96.20;;;;;;5073811;28;20487;-77
2023/08/21 08:38:09;;;;;;;1999.90;999.90;;;37.40;95.90;;;;;;5071706;28;20520;-79
2023/08/21 08:40:42;;;;;;;1999.90;999.90;;;37.70;95.80;;;;;;5073780;28;20033;-79
2023/08/21 08:43:08;;;;;;;1999.90;999.90;;;38.50;95.00;;;;;;5072634;28;20070;-79
2023/08/21 08:45:36;;;;;;;1999.90;999.90;;;38.60;94.10;;;;;;5082932;28;20032;-79
2023/08/21 08:48:02;;;;;;;1999.90;999.90;;;38.00;94.00;;;;;;5085694;28;20028;-79
2023/08/21 08:50:31;;;;;;;1999.90;999.90;;;38.30;93.80;;;;;;5072795;28;20035;-77
2023/08/21 08:52:58;;;;;;;1999.90;999.90;;;38.40;94.00;;;;;;5083980;28;20024;-77
2023/08/21 08:55:24;;;;;;;1999.90;999.90;;;38.40;93.40;;;;;;5073245;28;20656;-77
2023/08/21 08:57:51;;;;;;;1999.90;999.90;;;38.90;93.10;;;;;;5078769;28;20025;-79
2023/08/21 09:00:17;;;;;;;1999.90;999.90;;;39.30;93.40;;;;;;5086541;28;20028;-77
2023/08/21 09:02:43;;;;;;;1999.90;999.90;;;39.10;92.70;;;;;;5081097;28;20051;-77
2023/08/21 09:05:10;;;;;;;1999.90;999.90;;;39.40;92.60;;;;;;5085784;28;20182;-78
2023/08/21 09:07:36;;;;;;;1999.90;999.90;;;39.30;92.70;;;;;;5074800;28;20506;-79
2023/08/21 09:10:02;;;;;;;1999.90;999.90;;;39.90;92.10;;;;;;5084365;28;20115;-79
2023/08/21 09:12:31;;;;;;;1999.90;999.90;;;39.60;91.90;;;;;;5073458;28;20024;-79
2023/08/21 09:14:59;;;;;;;1999.90;999.90;;;39.80;92.30;;;;;;5077757;28;20035;-77
2023/08/21 09:17:26;;;;;;;1999.90;999.90;;;40.00;91.50;;;;;;5080944;28;20064;-78
2023/08/21 09:19:52;;;;;;;1999.90;999.90;;;40.10;91.20;;;;;;5080721;28;20036;-77
2023/08/21 09:22:18;;;;;;;1999.90;999.90;;;40.10;91.20;;;;;;5072025;28;20028;-77
2023/08/21 09:25:06;;;;;;;1999.90;999.90;;;40.20;91.20;;;;;;5070351;28;20107;-77
2023/08/21 09:27:38;;;;;;;1999.90;999.90;;;40.20;91.00;;;;;;5067925;28;20021;-79
2023/08/21 09:30:05;;;;;;;1999.90;999.90;;;39.80;91.00;;;;;;5072400;28;20035;-78
2023/08/21 09:32:30;;;;;;;1999.90;999.90;;;40.40;91.10;;;;;;5071581;28;20025;-79
2023/08/21 09:34:56;;;;;;;1999.90;999.90;;;41.10;90.90;;;;;;5072240;28;20025;-79
2023/08/21 09:37:29;;;;;;;1999.90;999.90;;;40.60;90.30;;;;;;5071955;28;20376;-79
2023/08/21 09:40:03;;;;;;;1999.90;999.90;;;40.80;90.60;;;;;;5070290;28;20043;-78
2023/08/21 09:42:29;;;;;;;1999.90;999.90;;;40.80;90.30;;;;;;5071213;28;20020;-78
2023/08/21 09:44:55;;;;;;;1999.90;999.90;;;40.60;90.50;;;;;;5071742;28;20109;-78
2023/08/21 09:47:23;;;;;;;1999.90;999.90;;;40.20;89.90;;;;;;5072247;28;20044;-80
2023/08/21 09:49:50;;;;;;;1999.90;999.90;;;40.30;90.40;;;;;;5072034;28;20491;-79
2023/08/21 09:52:15;;;;;;;1999.90;999.90;;;41.00;89.90;;;;;;5080958;28;20525;-79
2023/08/21 09:54:42;;;;;;;1999.90;999.90;;;40.50;89.90;;;;;;5077510;28;20104;-78
2023/08/21 09:57:09;;;;;;;1999.90;999.90;;;40.30;90.20;;;;;;5070613;28;20119;-78
2023/08/21 09:59:35;;;;;;;1999.90;999.90;;;40.60;89.40;;;;;;5071832;28;20039;-80
2023/08/21 10:02:02;;;;;;;1999.90;999.90;;;40.30;89.40;;;;;;5069998;28;20040;-76
2023/08/21 10:04:31;;;;;;;1999.90;999.90;;;40.80;89.90;;;;;;5074698;28;20108;-78
2023/08/21 10:06:59;;;;;;;1999.90;999.90;;;40.40;90.30;;;;;;5071956;28;20491;-78
2023/08/21 10:09:26;;;;;;;1999.90;999.90;;;40.40;89.40;;;;;;5070230;28;20039;-77
2023/08/21 10:11:56;;;;;;;1999.90;999.90;;;40.00;89.90;;;;;;5069845;28;20044;-78
2023/08/21 10:14:25;;;;;;;1999.90;999.90;;;40.50;90.00;;;;;;5071306;28;20032;-77
2023/08/21 10:16:53;;;;;;;1999.90;999.90;;;40.80;90.10;;;;;;5071525;28;20082;-77
2023/08/21 10:19:18;;;;;;;1999.90;999.90;;;40.80;90.10;;;;;;5070184;28;20028;-78
2023/08/21 10:21:48;;;;;;;1999.90;999.90;;;40.70;89.80;;;;;;5073998;28;20023;-78
2023/08/21 10:24:27;;;;;;;1999.90;999.90;;;40.20;89.20;;;;;;5081221;28;20033;-77
2023/08/21 10:26:52;;;;;;;1999.90;999.90;;;39.60;89.40;;;;;;5072152;28;20491;-77
2023/08/21 10:29:18;;;;;;;1999.90;999.90;;;39.50;89.50;;;;;;5072549;28;20025;-78
2023/08/21 10:31:44;;;;;;;1999.90;999.90;;;39.00;90.50;;;;;;5081978;28;20110;-78
2023/08/21 10:34:12;;;;;;;1999.90;999.90;;;38.50;90.30;;;;;;5080782;28;20471;-78
2023/08/21 10:36:44;;;;;;;1999.90;999.90;;;38.50;90.80;;;;;;5075650;28;20028;-78
2023/08/21 10:39:21;;;;;;;1999.90;999.90;;;37.70;90.70;;;;;;5090087;28;20395;-78
2023/08/21 10:41:55;;;;;;;1999.90;999.90;;;36.90;91.40;;;;;;5071637;28;20805;-77
2023/08/21 10:44:36;;;;;;;1999.90;999.90;;;36.10;92.10;;;;;;5071825;28;20029;-77
2023/08/21 10:47:28;;;;;;;1999.90;999.90;;;35.80;92.80;;;;;;5072337;28;20362;-77
2023/08/21 10:49:55;;;;;;;1999.90;999.90;;;36.00;92.90;;;;;;5074887;28;20040;-78
2023/08/21 10:52:26;;;;;;;1999.90;999.90;;;35.90;93.10;;;;;;5085302;28;20487;-78
2023/08/21 10:54:56;;;;;;;1999.90;999.90;;;35.70;92.90;;;;;;5072483;28;20503;-78
2023/08/21 10:57:23;;;;;;;1999.90;999.90;;;35.90;93.00;;;;;;5065899;28;20028;-78
2023/08/21 10:59:51;;;;;;;1999.90;999.90;;;35.70;93.10;;;;;;5072231;28;20583;-77
2023/08/21 11:02:18;;;;;;;1999.90;999.90;;;35.90;93.40;;;;;;5070101;28;20044;-77
2023/08/21 11:04:44;;;;;;;1999.90;999.90;;;36.10;93.20;;;;;;5072818;28;20024;-77
2023/08/21 11:07:10;;;;;;;1999.90;999.90;;;36.10;92.90;;;;;;5073144;28;20446;-78
2023/08/21 11:09:37;;;;;;;1999.90;999.90;;;36.30;93.10;;;;;;5070533;28;20077;-77
2023/08/21 11:12:10;;;;;;;1999.90;999.90;;;36.40;93.00;;;;;;5071542;28;20036;-77
2023/08/21 11:14:38;;;;;;;1999.90;999.90;;;36.40;92.80;;;;;;5069581;28;20039;-76
2023/08/21 11:17:04;;;;;;;1999.90;999.90;;;36.30;93.30;;;;;;5069814;28;20375;-77
2023/08/21 11:19:33;;;;;;;1999.90;999.90;;;36.20;93.20;;;;;;5069922;28;20032;-76
2023/08/21 11:22:03;;;;;;;1999.90;999.90;;;35.70;93.60;;;;;;5069413;28;20043;-76
2023/08/21 11:24:31;;;;;;;1999.90;999.90;;;35.40;93.80;;;;;;5080261;28;20025;-76
2023/08/21 11:26:57;;;;;;;1999.90;999.90;;;35.70;93.60;;;;;;5070956;28;20069;-76
2023/08/21 11:29:24;;;;;;;1999.90;999.90;;;35.50;94.00;;;;;;5072260;28;20470;-76
2023/08/21 11:31:49;;;;;;;1999.90;999.90;;;35.80;94.30;;;;;;5069019;28;20040;-77
2023/08/21 11:34:21;;;;;;;1999.90;999.90;;;36.60;93.70;;;;;;5071576;28;20089;-76
2023/08/21 11:36:47;;;;;;;1999.90;999.90;;;37.10;93.10;;;;;;5069982;28;20035;-77
2023/08/21 11:39:13;;;;;;;1999.90;999.90;;;37.30;92.50;;;;;;5085458;28;20111;-78
2023/08/21 11:41:56;;;;;;;1999.90;999.90;;;36.90;92.40;;;;;;5077748;28;20021;-76
2023/08/21 11:44:22;;;;;;;1999.90;999.90;;;36.70;93.00;;;;;;5069789;28;20025;-75
2023/08/21 11:46:47;;;;;;;1999.90;999.90;;;36.10;93.10;;;;;;5070899;28;20078;-76
2023/08/21 11:49:13;;;;;;;1999.90;999.90;;;35.80;93.70;;;;;;5071195;28;20095;-75
2023/08/21 11:51:39;;;;;;;1999.90;999.90;;;35.60;94.10;;;;;;5073468;28;20112;-76
2023/08/21 11:54:06;;;;;;;1999.90;999.90;;;35.30;94.20;;;;;;5072833;28;20024;-75
2023/08/21 11:56:31;;;;;;;1999.90;999.90;;;35.70;94.30;;;;;;5070850;28;20560;-76